Time;durP1;ratioP1;P1;durP2;ratioP2;P2;SDS_P1;SDS_P2;PMS_P1;PMS_P2;Temp;Humidity;BMP_temperature;BMP_pressure;BME280_temperature;BME280_humidity;BME280_pressure;Samples;Min_cycle;Max_cycle;Signal;HPM_P1;HPM_P2
2022/08/05 00:01:58;;;;;;;;;;;28.00;47.10;;;;;;1502194;77;633;-60
2022/08/05 00:04:00;;;;;;;;;;;27.90;46.40;;;;;;1503093;77;1557;-58
2022/08/05 00:06:02;;;;;;;;;;;28.00;47.00;;;;;;1505511;77;1969;-58
2022/08/05 00:08:04;;;;;;;;;;;27.90;46.30;;;;;;1505112;77;787;-60
2022/08/05 00:10:06;;;;;;;;;;;28.00;46.90;;;;;;1499335;77;876;-58
2022/08/05 00:12:08;;;;;;;;;;;27.90;46.30;;;;;;1500799;77;1141;-56
2022/08/05 00:14:10;;;;;;;;;;;28.00;46.90;;;;;;1508892;77;732;-59
2022/08/05 00:16:13;;;;;;;;;;;28.00;46.90;;;;;;1504385;77;748;-61
2022/08/05 00:18:15;;;;;;;;;;;27.90;46.20;;;;;;1499980;77;1543;-58
2022/08/05 00:20:16;;;;;;;;;;;28.00;46.80;;;;;;1490169;77;727;-61
2022/08/05 00:22:18;;;;;;;;;;;27.90;46.30;;;;;;1504497;77;1139;-60
2022/08/05 00:24:20;;;;;;;;;;;28.00;46.90;;;;;;1504632;77;673;-60
2022/08/05 00:26:22;;;;;;;;;;;27.90;46.30;;;;;;1510873;77;1931;-61
2022/08/05 00:28:24;;;;;;;;;;;28.00;46.90;;;;;;1518478;77;828;-60
2022/08/05 00:30:26;;;;;;;;;;;27.90;46.30;;;;;;1504684;77;598;-58
2022/08/05 00:32:28;;;;;;;;;;;27.90;46.10;;;;;;1506843;77;1583;-57
2022/08/05 00:34:30;;;;;;;;;;;27.90;46.20;;;;;;1505225;77;638;-61
2022/08/05 00:36:31;;;;;;;;;;;27.90;46.20;;;;;;1504130;77;664;-61
2022/08/05 00:38:33;;;;;;;;;;;27.90;46.20;;;;;;1502162;77;713;-60
2022/08/05 00:40:37;;;;;;;;;;;27.90;46.10;;;;;;1480205;78;812;-61
2022/08/05 00:42:39;;;;;;;;;;;28.00;46.80;;;;;;1513066;76;1661;-59
2022/08/05 00:44:41;;;;;;;;;;;27.90;46.00;;;;;;1539434;75;676;-57
2022/08/05 00:46:42;;;;;;;;;;;27.90;46.00;;;;;;1535964;75;1936;-61
2022/08/05 00:48:44;;;;;;;;;;;27.90;46.00;;;;;;1552820;75;733;-61
2022/08/05 00:50:47;;;;;;;;;;;27.90;46.00;;;;;;1554570;75;726;-60
2022/08/05 00:52:49;;;;;;;;;;;27.90;46.00;;;;;;1557476;75;1191;-60
2022/08/05 00:54:50;;;;;;;;;;;27.90;45.90;;;;;;1553855;75;736;-58
2022/08/05 00:56:52;;;;;;;;;;;27.90;46.00;;;;;;1552892;75;670;-61
2022/08/05 00:58:54;;;;;;;;;;;27.90;45.90;;;;;;1553297;75;696;-58
2022/08/05 01:00:56;;;;;;;;;;;27.90;45.90;;;;;;1555407;75;1541;-58
2022/08/05 01:02:58;;;;;;;;;;;27.90;45.80;;;;;;1565201;75;1173;-57
2022/08/05 01:05:00;;;;;;;;;;;28.00;46.50;;;;;;1560611;75;1942;-60
2022/08/05 01:07:02;;;;;;;;;;;27.90;45.80;;;;;;1561007;75;707;-60
2022/08/05 01:09:05;;;;;;;;;;;27.90;45.90;;;;;;1553088;75;657;-61
2022/08/05 01:11:08;;;;;;;;;;;27.90;45.80;;;;;;1553902;75;679;-59
2022/08/05 01:13:12;;;;;;;;;;;27.90;45.80;;;;;;1562116;75;1129;-61
2022/08/05 01:15:13;;;;;;;;;;;27.90;46.00;;;;;;1540810;75;1559;-59
2022/08/05 01:17:26;;;;;;;;;;;27.90;45.80;;;;;;1538996;75;1010;-58
2022/08/05 01:19:39;;;;;;;;;;;27.90;45.90;;;;;;1554892;75;628;-58
2022/08/05 01:21:59;;;;;;;;;;;27.90;45.90;;;;;;1556928;75;634;-61
2022/08/05 01:24:11;;;;;;;;;;;27.90;45.90;;;;;;1545718;75;691;-59
2022/08/05 01:26:15;;;;;;;;;;;27.90;45.90;;;;;;1551448;75;1960;-60
2022/08/05 01:31:03;;;;;;;;;;;27.90;45.80;;;;;;1575150;74;1551;-59
2022/08/05 01:33:07;;;;;;;;;;;27.90;45.80;;;;;;1551719;75;1223;-56
2022/08/05 01:35:09;;;;;;;;;;;27.90;45.70;;;;;;1538252;75;677;-56
2022/08/05 01:37:13;;;;;;;;;;;27.90;45.70;;;;;;1545040;75;674;-55
2022/08/05 01:39:15;;;;;;;;;;;27.90;45.70;;;;;;1524039;75;1381;-58
2022/08/05 01:41:17;;;;;;;;;;;27.90;45.70;;;;;;1545132;76;675;-57
2022/08/05 01:43:19;;;;;;;;;;;27.80;45.70;;;;;;1541966;75;1525;-56
2022/08/05 01:45:21;;;;;;;;;;;27.90;45.70;;;;;;1544012;75;1936;-56
2022/08/05 01:47:23;;;;;;;;;;;27.90;45.70;;;;;;1535875;76;701;-56
2022/08/05 01:49:25;;;;;;;;;;;27.80;45.70;;;;;;1534826;75;683;-54
2022/08/05 01:51:27;;;;;;;;;;;27.90;45.70;;;;;;1542826;76;715;-58
2022/08/05 01:53:29;;;;;;;;;;;27.90;45.60;;;;;;1544939;75;1146;-55
2022/08/05 01:55:32;;;;;;;;;;;27.90;45.70;;;;;;1531427;75;718;-55
2022/08/05 01:57:35;;;;;;;;;;;27.90;45.50;;;;;;1530456;75;1417;-55
2022/08/05 01:59:37;;;;;;;;;;;27.90;45.70;;;;;;1531680;76;640;-57
2022/08/05 02:01:39;;;;;;;;;;;27.80;45.60;;;;;;1537532;75;637;-54
2022/08/05 02:03:42;;;;;;;;;;;27.90;45.60;;;;;;1544753;76;1157;-58
2022/08/05 02:05:44;;;;;;;;;;;27.90;45.50;;;;;;1543556;75;1935;-58
2022/08/05 02:07:46;;;;;;;;;;;27.80;45.50;;;;;;1536392;76;703;-55
2022/08/05 02:09:48;;;;;;;;;;;27.90;45.50;;;;;;1544770;75;659;-56
2022/08/05 02:11:54;;;;;;;;;;;27.80;45.40;;;;;;1540592;75;1430;-56
2022/08/05 02:13:58;;;;;;;;;;;27.90;45.40;;;;;;1543669;76;1121;-55
2022/08/05 02:16:01;;;;;;;;;;;27.90;45.50;;;;;;1539453;75;1799;-57
2022/08/05 02:18:07;;;;;;;;;;;27.90;45.20;;;;;;1543336;76;989;-57
2022/08/05 02:20:11;;;;;;;;;;;27.90;45.20;;;;;;1539076;76;678;-57
2022/08/05 02:22:20;;;;;;;;;;;27.80;45.20;;;;;;1548773;76;1115;-58
2022/08/05 02:24:22;;;;;;;;;;;27.80;45.20;;;;;;1543560;75;640;-55
2022/08/05 02:26:26;;;;;;;;;;;27.80;45.20;;;;;;1540817;77;1936;-56
2022/08/05 02:28:29;;;;;;;;;;;27.90;45.00;;;;;;1532946;76;2081;-56
2022/08/05 02:30:32;;;;;;;;;;;27.80;45.00;;;;;;1535689;75;790;-57
2022/08/05 02:32:34;;;;;;;;;;;27.90;45.10;;;;;;1541936;76;1271;-57
2022/08/05 02:34:36;;;;;;;;;;;27.80;45.20;;;;;;1541964;75;699;-57
2022/08/05 02:36:42;;;;;;;;;;;27.80;45.20;;;;;;1543478;77;582;-57
2022/08/05 02:38:45;;;;;;;;;;;27.80;45.20;;;;;;1543038;75;1332;-56
2022/08/05 02:40:47;;;;;;;;;;;27.90;45.10;;;;;;1544324;75;1687;-57
2022/08/05 02:42:49;;;;;;;;;;;27.80;45.10;;;;;;1552567;75;1081;-58
2022/08/05 02:44:51;;;;;;;;;;;27.80;45.00;;;;;;1546450;76;667;-57
2022/08/05 02:46:54;;;;;;;;;;;27.90;45.10;;;;;;1542741;76;1943;-56
2022/08/05 02:48:56;;;;;;;;;;;27.80;45.00;;;;;;1544650;76;738;-55
2022/08/05 02:51:00;;;;;;;;;;;27.80;45.00;;;;;;1544929;75;667;-56
2022/08/05 02:53:02;;;;;;;;;;;27.90;45.10;;;;;;1543283;76;1469;-58
2022/08/05 02:55:04;;;;;;;;;;;27.90;45.10;;;;;;1542524;75;666;-57
2022/08/05 02:57:15;;;;;;;;;;;27.80;45.10;;;;;;1531468;76;692;-56
2022/08/05 02:59:17;;;;;;;;;;;27.80;45.00;;;;;;1530217;75;667;-56
2022/08/05 03:01:20;;;;;;;;;;;27.80;45.10;;;;;;1545151;75;680;-54
2022/08/05 03:03:22;;;;;;;;;;;27.80;45.00;;;;;;1535625;75;1147;-54
2022/08/05 03:05:23;;;;;;;;;;;27.90;45.00;;;;;;1541612;75;648;-54
2022/08/05 03:07:26;;;;;;;;;;;27.70;45.00;;;;;;1540313;75;1934;-56
2022/08/05 03:09:28;;;;;;;;;;;27.80;45.00;;;;;;1552560;75;710;-54
2022/08/05 03:11:30;;;;;;;;;;;27.90;45.00;;;;;;1546372;76;698;-55
2022/08/05 03:13:32;;;;;;;;;;;27.80;44.90;;;;;;1542685;76;1177;-57
2022/08/05 03:15:34;;;;;;;;;;;27.80;44.90;;;;;;1533525;75;698;-57
2022/08/05 03:17:36;;;;;;;;;;;27.80;45.00;;;;;;1543539;76;658;-55
2022/08/05 03:19:38;;;;;;;;;;;27.80;44.90;;;;;;1540660;76;700;-56
2022/08/05 03:21:40;;;;;;;;;;;27.80;44.70;;;;;;1543823;76;1610;-54
2022/08/05 03:23:42;;;;;;;;;;;27.80;44.70;;;;;;1533017;75;1152;-54
2022/08/05 03:25:44;;;;;;;;;;;27.80;44.60;;;;;;1541109;76;1912;-54
2022/08/05 03:27:46;;;;;;;;;;;27.80;44.80;;;;;;1545680;75;746;-56
2022/08/05 03:29:48;;;;;;;;;;;27.70;44.70;;;;;;1546490;76;673;-54
2022/08/05 03:31:50;;;;;;;;;;;27.80;44.60;;;;;;1541536;76;798;-55
2022/08/05 03:33:52;;;;;;;;;;;27.80;44.60;;;;;;1541028;75;1129;-54
2022/08/05 03:35:55;;;;;;;;;;;27.80;44.70;;;;;;1540220;75;1343;-56
2022/08/05 03:37:57;;;;;;;;;;;27.70;44.60;;;;;;1531833;75;688;-56
2022/08/05 03:40:01;;;;;;;;;;;27.80;44.60;;;;;;1537708;75;628;-55
2022/08/05 03:42:03;;;;;;;;;;;27.80;44.70;;;;;;1535786;76;1123;-54
2022/08/05 03:44:05;;;;;;;;;;;27.80;44.60;;;;;;1536846;75;755;-55
2022/08/05 03:46:07;;;;;;;;;;;27.80;44.70;;;;;;1537516;75;1937;-56
2022/08/05 03:48:09;;;;;;;;;;;27.80;44.50;;;;;;1535969;75;628;-54
2022/08/05 03:50:10;;;;;;;;;;;27.70;44.50;;;;;;1539884;75;1485;-57
2022/08/05 03:52:14;;;;;;;;;;;27.70;44.60;;;;;;1540560;76;1152;-57
2022/08/05 03:54:20;;;;;;;;;;;27.80;44.60;;;;;;1539240;75;644;-54
2022/08/05 03:56:26;;;;;;;;;;;27.70;44.50;;;;;;1537645;77;1683;-56
2022/08/05 03:58:28;;;;;;;;;;;27.70;44.60;;;;;;1546182;76;680;-55
2022/08/05 04:00:31;;;;;;;;;;;27.70;44.70;;;;;;1545172;75;622;-57
2022/08/05 04:02:32;;;;;;;;;;;27.70;44.60;;;;;;1540982;75;1085;-56
2022/08/05 04:04:34;;;;;;;;;;;27.70;44.60;;;;;;1538107;75;1539;-57
2022/08/05 04:06:36;;;;;;;;;;;27.70;44.60;;;;;;1543427;76;1944;-55
2022/08/05 04:08:38;;;;;;;;;;;27.70;44.50;;;;;;1537870;75;662;-55
2022/08/05 04:10:40;;;;;;;;;;;27.70;44.60;;;;;;1518221;77;774;-55
2022/08/05 04:12:42;;;;;;;;;;;27.70;44.60;;;;;;1505740;77;1185;-55
2022/08/05 04:14:44;;;;;;;;;;;27.70;44.50;;;;;;1545002;76;667;-55
2022/08/05 04:16:46;;;;;;;;;;;27.70;44.50;;;;;;1544001;76;687;-56
2022/08/05 04:18:48;;;;;;;;;;;27.70;44.60;;;;;;1543343;75;1444;-56
2022/08/05 04:20:56;;;;;;;;;;;27.70;44.40;;;;;;1537297;76;854;-56
2022/08/05 04:22:57;;;;;;;;;;;27.70;44.40;;;;;;1536773;75;1150;-57
2022/08/05 04:25:00;;;;;;;;;;;27.70;44.40;;;;;;1535764;76;631;-56
2022/08/05 04:27:01;;;;;;;;;;;27.70;44.30;;;;;;1532617;75;1899;-56
2022/08/05 04:29:03;;;;;;;;;;;27.70;44.20;;;;;;1526572;77;719;-58
2022/08/05 04:31:05;;;;;;;;;;;27.70;44.20;;;;;;1542688;76;782;-55
2022/08/05 04:33:07;;;;;;;;;;;27.70;44.20;;;;;;1522089;75;1175;-58
2022/08/05 04:35:09;;;;;;;;;;;27.70;44.10;;;;;;1531258;77;764;-57
2022/08/05 04:37:11;;;;;;;;;;;27.80;44.10;;;;;;1538536;75;767;-59
2022/08/05 04:39:13;;;;;;;;;;;27.80;44.10;;;;;;1539300;75;681;-55
2022/08/05 04:41:15;;;;;;;;;;;27.70;44.00;;;;;;1529361;76;582;-55
2022/08/05 04:43:17;;;;;;;;;;;27.70;44.10;;;;;;1540417;75;1271;-56
2022/08/05 04:45:18;;;;;;;;;;;27.70;43.90;;;;;;1541142;77;1336;-57
2022/08/05 04:47:20;;;;;;;;;;;27.80;44.00;;;;;;1544352;75;1939;-57
2022/08/05 04:49:22;;;;;;;;;;;27.70;44.00;;;;;;1524919;76;677;-56
2022/08/05 04:51:24;;;;;;;;;;;27.70;44.00;;;;;;1538625;75;709;-58
2022/08/05 04:53:26;;;;;;;;;;;27.70;44.00;;;;;;1533798;77;1147;-57
2022/08/05 04:55:28;;;;;;;;;;;27.70;44.00;;;;;;1546148;76;658;-56
2022/08/05 04:57:30;;;;;;;;;;;27.70;43.90;;;;;;1540510;75;687;-55
2022/08/05 04:59:32;;;;;;;;;;;27.70;43.90;;;;;;1540620;76;1437;-56
2022/08/05 05:01:34;;;;;;;;;;;27.80;43.90;;;;;;1544879;76;651;-57
2022/08/05 05:03:35;;;;;;;;;;;27.70;43.90;;;;;;1542300;75;1133;-57
2022/08/05 05:05:37;;;;;;;;;;;27.70;43.90;;;;;;1538293;76;662;-56
2022/08/05 05:07:39;;;;;;;;;;;27.70;43.90;;;;;;1544913;75;1921;-58
2022/08/05 05:09:41;;;;;;;;;;;27.80;44.00;;;;;;1546410;75;661;-57
2022/08/05 05:11:43;;;;;;;;;;;27.70;44.00;;;;;;1542967;76;681;-57
2022/08/05 05:13:45;;;;;;;;;;;27.70;44.00;;;;;;1533847;75;1474;-55
2022/08/05 05:15:47;;;;;;;;;;;27.60;44.00;;;;;;1525272;76;666;-55
2022/08/05 05:17:49;;;;;;;;;;;27.70;44.00;;;;;;1529140;75;782;-56
2022/08/05 05:19:52;;;;;;;;;;;27.70;44.00;;;;;;1537204;76;726;-55
2022/08/05 05:21:54;;;;;;;;;;;27.70;44.10;;;;;;1528442;75;1082;-57
2022/08/05 05:23:56;;;;;;;;;;;27.70;44.10;;;;;;1533247;77;1055;-55
2022/08/05 05:25:58;;;;;;;;;;;27.70;44.00;;;;;;1540399;75;717;-56
2022/08/05 05:28:00;;;;;;;;;;;27.70;44.00;;;;;;1541742;76;1939;-57
2022/08/05 05:30:02;;;;;;;;;;;27.70;44.00;;;;;;1534421;75;627;-55
2022/08/05 05:32:04;;;;;;;;;;;27.80;44.10;;;;;;1536889;75;1168;-57
2022/08/05 05:34:06;;;;;;;;;;;27.70;44.10;;;;;;1539693;77;684;-56
2022/08/05 05:36:08;;;;;;;;;;;27.70;44.20;;;;;;1544373;75;709;-56
2022/08/05 05:38:10;;;;;;;;;;;27.70;44.10;;;;;;1545061;76;652;-57
2022/08/05 05:40:14;;;;;;;;;;;27.70;44.20;;;;;;1540677;75;748;-56
2022/08/05 05:42:16;;;;;;;;;;;27.70;44.20;;;;;;1541697;75;1467;-56
2022/08/05 05:44:17;;;;;;;;;;;27.70;44.10;;;;;;1542156;75;676;-57
2022/08/05 05:46:19;;;;;;;;;;;27.70;44.20;;;;;;1541032;75;625;-56
2022/08/05 05:48:21;;;;;;;;;;;27.70;44.20;;;;;;1537555;76;1939;-56
2022/08/05 05:50:23;;;;;;;;;;;27.70;44.20;;;;;;1544825;76;658;-57
2022/08/05 05:52:25;;;;;;;;;;;27.70;44.20;;;;;;1544740;75;1096;-57
2022/08/05 05:54:27;;;;;;;;;;;27.80;44.20;;;;;;1545621;75;733;-57
2022/08/05 05:56:29;;;;;;;;;;;27.80;44.20;;;;;;1544101;76;1453;-57
2022/08/05 05:58:31;;;;;;;;;;;27.80;44.10;;;;;;1546403;77;708;-54
2022/08/05 06:00:33;;;;;;;;;;;27.80;44.20;;;;;;1545390;76;751;-54
2022/08/05 06:02:35;;;;;;;;;;;27.80;44.00;;;;;;1539758;75;1149;-54
2022/08/05 06:04:37;;;;;;;;;;;27.90;43.90;;;;;;1542142;75;677;-54
2022/08/05 06:06:40;;;;;;;;;;;27.80;43.90;;;;;;1541709;77;632;-55
2022/08/05 06:08:43;;;;;;;;;;;27.80;43.90;;;;;;1541908;76;583;-55
2022/08/05 06:10:45;;;;;;;;;;;27.70;43.90;;;;;;1531673;77;1544;-54
2022/08/05 06:12:46;;;;;;;;;;;27.70;43.90;;;;;;1538638;75;1163;-53
2022/08/05 06:14:48;;;;;;;;;;;27.80;43.90;;;;;;1544325;76;679;-54
2022/08/05 06:16:50;;;;;;;;;;;27.80;43.90;;;;;;1543617;75;687;-55
2022/08/05 06:18:52;;;;;;;;;;;27.80;43.90;;;;;;1545226;76;677;-52
2022/08/05 06:20:54;;;;;;;;;;;27.80;43.70;;;;;;1542691;75;808;-52
2022/08/05 06:22:56;;;;;;;;;;;27.90;43.90;;;;;;1546876;75;1136;-53
2022/08/05 06:24:58;;;;;;;;;;;28.00;44.50;;;;;;1545240;75;1578;-54
2022/08/05 06:27:00;;;;;;;;;;;27.90;43.90;;;;;;1544588;77;1915;-55
2022/08/05 06:29:02;;;;;;;;;;;27.90;43.80;;;;;;1544373;75;684;-54
2022/08/05 06:31:03;;;;;;;;;;;28.00;44.40;;;;;;1552162;75;727;-53
2022/08/05 06:33:06;;;;;;;;;;;28.00;44.40;;;;;;1533666;75;1158;-55
2022/08/05 06:35:08;;;;;;;;;;;28.00;44.40;;;;;;1541300;76;653;-54
2022/08/05 06:37:10;;;;;;;;;;;28.00;44.40;;;;;;1546340;75;689;-53
2022/08/05 06:39:11;;;;;;;;;;;28.00;44.50;;;;;;1546413;75;1466;-54
2022/08/05 06:41:13;;;;;;;;;;;27.90;43.80;;;;;;1539501;75;700;-54
2022/08/05 06:43:15;;;;;;;;;;;28.00;44.40;;;;;;1543087;75;1133;-53
2022/08/05 06:45:17;;;;;;;;;;;27.90;43.80;;;;;;1543553;75;664;-54
2022/08/05 06:47:19;;;;;;;;;;;28.00;44.40;;;;;;1541408;75;1929;-56
2022/08/05 06:49:21;;;;;;;;;;;28.00;44.30;;;;;;1533242;75;650;-55
2022/08/05 06:51:23;;;;;;;;;;;28.00;44.30;;;;;;1545203;75;660;-53
2022/08/05 06:53:25;;;;;;;;;;;28.00;44.30;;;;;;1542411;75;1488;-53
2022/08/05 06:55:27;;;;;;;;;;;28.00;44.30;;;;;;1541741;75;689;-57
2022/08/05 06:57:28;;;;;;;;;;;28.00;44.20;;;;;;1544451;75;674;-55
2022/08/05 06:59:30;;;;;;;;;;;28.00;44.30;;;;;;1535831;75;790;-54
2022/08/05 07:01:32;;;;;;;;;;;27.90;43.60;;;;;;1546631;76;702;-54
2022/08/05 07:03:34;;;;;;;;;;;27.90;43.50;;;;;;1543078;75;1132;-55
2022/08/05 07:05:36;;;;;;;;;;;28.00;44.20;;;;;;1547361;75;565;-56
2022/08/05 07:07:38;;;;;;;;;;;27.90;43.60;;;;;;1539193;76;1947;-55
2022/08/05 07:09:40;;;;;;;;;;;27.80;43.60;;;;;;1539499;76;701;-56
2022/08/05 07:11:42;;;;;;;;;;;27.80;43.60;;;;;;1536062;75;657;-54
2022/08/05 07:18:24;;;;;;;;;;;27.70;43.70;;;;;;1543831;75;1687;-55
2022/08/05 07:20:26;;;;;;;;;;;27.70;43.80;;;;;;1542292;75;1364;-57
2022/08/05 07:22:28;;;;;;;;;;;27.70;43.80;;;;;;1537975;75;1143;-57
2022/08/05 07:24:30;;;;;;;;;;;27.70;43.80;;;;;;1543770;75;700;-55
2022/08/05 07:26:32;;;;;;;;;;;27.70;43.80;;;;;;1543900;75;670;-55
2022/08/05 07:28:34;;;;;;;;;;;27.70;43.90;;;;;;1532820;75;1945;-55
2022/08/05 07:30:36;;;;;;;;;;;27.70;43.80;;;;;;1589665;71;229937;-73
2022/08/05 07:32:38;;;;;;;;;;;27.70;43.90;;;;;;1609088;73;688;-73
2022/08/05 07:34:40;;;;;;;;;;;27.60;43.70;;;;;;1602805;73;1563;-74
2022/08/05 07:36:42;;;;;;;;;;;27.60;43.60;;;;;;1602943;73;733;-72
2022/08/05 07:38:44;;;;;;;;;;;27.60;43.50;;;;;;1604046;73;688;-73
2022/08/05 07:40:45;;;;;;;;;;;27.60;43.40;;;;;;1582386;73;1168;-73
2022/08/05 07:42:47;;;;;;;;;;;27.50;43.40;;;;;;1586867;74;758;-74
2022/08/05 07:44:49;;;;;;;;;;;27.50;43.40;;;;;;1575811;74;685;-71
2022/08/05 07:46:51;;;;;;;;;;;27.40;43.40;;;;;;1579619;74;794;-73
2022/08/05 07:48:55;;;;;;;;;;;27.60;43.40;;;;;;1582022;74;1926;-74
2022/08/05 07:50:57;;;;;;;;;;;27.50;43.20;;;;;;1574751;74;1554;-72
2022/08/05 07:52:58;;;;;;;;;;;27.50;43.20;;;;;;1575846;74;810;-72
2022/08/05 07:55:00;;;;;;;;;;;27.40;43.20;;;;;;1573441;74;678;-73
2022/08/05 07:57:02;;;;;;;;;;;27.40;43.20;;;;;;1585851;74;869;-74
2022/08/05 07:59:04;;;;;;;;;;;27.40;43.30;;;;;;1585045;74;1080;-73
2022/08/05 08:01:06;;;;;;;;;;;27.50;43.40;;;;;;1557933;74;646;-72
2022/08/05 08:03:11;;;;;;;;;;;27.40;43.40;;;;;;1576019;74;1595;-73
2022/08/05 08:05:13;;;;;;;;;;;27.40;43.40;;;;;;1574116;74;740;-73
2022/08/05 08:07:15;;;;;;;;;;;27.40;43.40;;;;;;1577802;74;759;-70
2022/08/05 08:09:18;;;;;;;;;;;27.40;43.50;;;;;;1582887;74;1892;-72
2022/08/05 08:11:20;;;;;;;;;;;27.40;43.50;;;;;;1574093;74;746;-71
2022/08/05 08:13:22;;;;;;;;;;;27.40;43.50;;;;;;1581011;74;661;-72
2022/08/05 08:15:23;;;;;;;;;;;27.40;43.50;;;;;;1580470;74;761;-72
2022/08/05 08:17:25;;;;;;;;;;;27.40;43.50;;;;;;1573912;74;1565;-72
2022/08/05 08:19:27;;;;;;;;;;;27.40;43.50;;;;;;1564858;74;1172;-71
2022/08/05 08:21:29;;;;;;;;;;;27.40;43.50;;;;;;1566752;74;708;-72
2022/08/05 08:23:31;;;;;;;;;;;27.40;43.50;;;;;;1567723;74;645;-71
2022/08/05 08:25:33;;;;;;;;;;;27.40;43.60;;;;;;1566465;74;721;-71
2022/08/05 08:27:35;;;;;;;;;;;27.40;43.60;;;;;;1570498;74;1912;-73
2022/08/05 08:29:37;;;;;;;;;;;27.40;43.60;;;;;;1563839;74;1073;-71
2022/08/05 08:31:39;;;;;;;;;;;27.40;43.60;;;;;;1569492;74;1540;-71
2022/08/05 08:33:41;;;;;;;;;;;27.40;43.60;;;;;;1577494;74;657;-68
2022/08/05 08:35:43;;;;;;;;;;;27.30;43.60;;;;;;1557854;74;745;-71
2022/08/05 08:37:45;;;;;;;;;;;27.40;43.60;;;;;;1568138;74;767;-72
2022/08/05 08:39:46;;;;;;;;;;;27.40;43.60;;;;;;1567452;74;1168;-72
2022/08/05 08:41:48;;;;;;;;;;;27.40;43.60;;;;;;1588170;74;589;-71
2022/08/05 08:43:50;;;;;;;;;;;27.30;43.70;;;;;;1578056;74;677;-71
2022/08/05 08:45:52;;;;;;;;;;;27.40;43.80;;;;;;1578171;74;1600;-70
2022/08/05 08:47:54;;;;;;;;;;;27.40;43.90;;;;;;1578483;74;1946;-70
2022/08/05 08:49:56;;;;;;;;;;;27.40;43.80;;;;;;1569928;74;1124;-71
2022/08/05 08:51:59;;;;;;;;;;;27.40;43.90;;;;;;1573963;74;643;-70
2022/08/05 08:54:01;;;;;;;;;;;27.30;43.90;;;;;;1571784;74;698;-71
2022/08/05 08:56:03;;;;;;;;;;;27.40;44.00;;;;;;1574145;74;745;-70
2022/08/05 08:58:05;;;;;;;;;;;27.40;44.00;;;;;;1577457;74;653;-70
2022/08/05 09:00:08;;;;;;;;;;;27.40;44.10;;;;;;1575287;74;1695;-71
2022/08/05 09:02:10;;;;;;;;;;;27.50;44.00;;;;;;1576910;74;710;-71
2022/08/05 09:04:12;;;;;;;;;;;27.40;44.10;;;;;;1575324;74;757;-72
2022/08/05 09:06:14;;;;;;;;;;;27.40;44.20;;;;;;1564735;74;693;-71
2022/08/05 09:08:18;;;;;;;;;;;27.40;44.10;;;;;;1576220;74;1939;-72
2022/08/05 09:10:20;;;;;;;;;;;27.40;44.20;;;;;;1566807;74;1202;-71
2022/08/05 09:12:22;;;;;;;;;;;27.40;44.20;;;;;;1580609;74;1538;-71
2022/08/05 09:14:24;;;;;;;;;;;27.40;44.20;;;;;;1583292;74;633;-72
2022/08/05 09:16:26;;;;;;;;;;;27.40;44.20;;;;;;1577918;74;662;-71
2022/08/05 09:18:28;;;;;;;;;;;27.40;44.30;;;;;;1573072;74;693;-71
2022/08/05 09:20:30;;;;;;;;;;;27.40;44.30;;;;;;1575692;74;1160;-72
2022/08/05 09:22:50;;;;;;;;;;;27.40;44.40;;;;;;1570345;74;749;-71
2022/08/05 09:25:00;;;;;;;;;;;27.40;44.50;;;;;;1577920;74;673;-71
2022/08/05 09:27:04;;;;;;;;;;;27.40;44.40;;;;;;1574410;74;1583;-71
2022/08/05 09:29:06;;;;;;;;;;;27.40;44.50;;;;;;1575399;74;1936;-70
2022/08/05 09:31:12;;;;;;;;;;;27.40;44.60;;;;;;1586006;74;796;-70
2022/08/05 09:33:14;;;;;;;;;;;27.50;44.60;;;;;;1579864;74;868;-71
2022/08/05 09:35:16;;;;;;;;;;;27.40;44.60;;;;;;1581281;74;655;-70
2022/08/05 09:37:24;;;;;;;;;;;27.50;44.70;;;;;;1570344;74;958;-71
2022/08/05 09:39:28;;;;;;;;;;;27.50;44.60;;;;;;1579865;74;1155;-70
2022/08/05 09:41:30;;;;;;;;;;;27.60;44.70;;;;;;1579239;74;1599;-71
2022/08/05 09:43:33;;;;;;;;;;;27.50;44.70;;;;;;1573780;74;727;-70
2022/08/05 09:45:41;;;;;;;;;;;27.50;44.70;;;;;;1575305;74;951;-68
2022/08/05 09:47:43;;;;;;;;;;;27.60;44.70;;;;;;1573955;74;700;-70
2022/08/05 09:49:46;;;;;;;;;;;27.60;44.70;;;;;;1581335;74;1935;-69
2022/08/05 09:51:48;;;;;;;;;;;27.60;44.70;;;;;;1578623;74;693;-70
2022/08/05 09:53:50;;;;;;;;;;;27.70;44.60;;;;;;1574521;74;736;-68
2022/08/05 09:55:56;;;;;;;;;;;27.60;44.50;;;;;;1574040;74;1536;-70
2022/08/05 09:57:58;;;;;;;;;;;27.70;44.50;;;;;;1568542;74;738;-70
2022/08/05 10:00:00;;;;;;;;;;;27.80;44.40;;;;;;1575477;74;1132;-69
2022/08/05 10:02:02;;;;;;;;;;;27.80;44.30;;;;;;1569871;74;716;-69
2022/08/05 10:04:05;;;;;;;;;;;27.80;44.20;;;;;;1583086;74;718;-69
2022/08/05 10:06:10;;;;;;;;;;;27.90;44.30;;;;;;1571600;74;710;-69
2022/08/05 10:08:12;;;;;;;;;;;27.90;44.40;;;;;;1581335;74;1918;-70
2022/08/05 10:10:14;;;;;;;;;;;27.90;44.20;;;;;;1578435;74;1591;-69
2022/08/05 10:12:16;;;;;;;;;;;27.90;44.40;;;;;;1578207;74;844;-70
2022/08/05 10:14:22;;;;;;;;;;;27.80;44.30;;;;;;1585866;74;656;-70
2022/08/05 10:16:35;;;;;;;;;;;27.80;44.30;;;;;;1583356;74;728;-70
2022/08/05 10:18:37;;;;;;;;;;;27.80;44.40;;;;;;1575014;74;663;-70
2022/08/05 10:20:43;;;;;;;;;;;27.70;44.30;;;;;;1580447;73;1114;-70
2022/08/05 10:22:45;;;;;;;;;;;27.80;44.20;;;;;;1576931;74;1206;-69
2022/08/05 10:24:47;;;;;;;;;;;27.80;44.20;;;;;;1578147;74;632;-70
2022/08/05 10:26:50;;;;;;;;;;;27.80;44.00;;;;;;1577041;74;729;-70
2022/08/05 10:28:52;;;;;;;;;;;27.90;43.90;;;;;;1567723;74;1941;-69
2022/08/05 10:30:55;;;;;;;;;;;27.90;43.90;;;;;;1583575;74;1131;-70
2022/08/05 10:32:58;;;;;;;;;;;27.80;43.90;;;;;;1573316;74;660;-69
2022/08/05 10:35:00;;;;;;;;;;;27.90;43.80;;;;;;1571814;74;721;-69
2022/08/05 10:37:02;;;;;;;;;;;28.00;44.40;;;;;;1585225;74;1510;-70
2022/08/05 10:39:05;;;;;;;;;;;28.00;44.30;;;;;;1569384;74;1171;-70
2022/08/05 10:41:14;;;;;;;;;;;28.00;44.20;;;;;;1574885;74;765;-69
2022/08/05 10:43:36;;;;;;;;;;;28.00;44.10;;;;;;1579284;74;735;-69
2022/08/05 10:45:38;;;;;;;;;;;27.90;43.40;;;;;;1579107;74;741;-69
2022/08/05 10:47:43;;;;;;;;;;;28.00;44.10;;;;;;1570598;74;739;-69
2022/08/05 10:49:51;;;;;;;;;;;28.00;44.00;;;;;;1567415;74;1945;-69
2022/08/05 10:51:56;;;;;;;;;;;28.00;44.00;;;;;;1557129;74;1567;-69
2022/08/05 10:53:58;;;;;;;;;;;28.00;44.10;;;;;;1571833;74;1135;-71
2022/08/05 10:56:01;;;;;;;;;;;27.90;43.50;;;;;;1583157;74;758;-71
2022/08/05 10:58:08;;;;;;;;;;;27.90;43.50;;;;;;1565224;74;1923;-71
2022/08/05 11:00:11;;;;;;;;;;;27.90;43.50;;;;;;1582320;73;1143;-71
2022/08/05 11:02:13;;;;;;;;;;;27.80;43.60;;;;;;1579374;74;716;-70
2022/08/05 11:04:17;;;;;;;;;;;27.90;43.60;;;;;;1580285;74;816;-71
2022/08/05 11:06:19;;;;;;;;;;;27.90;43.60;;;;;;1581114;74;1570;-69
2022/08/05 11:08:20;;;;;;;;;;;27.90;43.60;;;;;;1581270;74;771;-70
2022/08/05 11:10:23;;;;;;;;;;;27.90;43.60;;;;;;1581088;74;1944;-70
2022/08/05 11:12:43;;;;;;;;;;;27.80;43.50;;;;;;1580558;74;717;-70
2022/08/05 11:14:45;;;;;;;;;;;27.80;43.60;;;;;;1573819;74;757;-70
2022/08/05 11:16:48;;;;;;;;;;;27.90;43.70;;;;;;1577972;74;650;-70
2022/08/05 11:18:51;;;;;;;;;;;27.90;43.70;;;;;;1544657;75;1210;-70
2022/08/05 11:20:53;;;;;;;;;;;27.80;43.70;;;;;;1566840;74;1827;-71
2022/08/05 11:22:55;;;;;;;;;;;27.80;43.60;;;;;;1574439;74;784;-71
2022/08/05 11:25:15;;;;;;;;;;;27.80;43.60;;;;;;1570127;74;644;-71
2022/08/05 11:27:29;;;;;;;;;;;27.80;43.60;;;;;;1572539;74;692;-71
2022/08/05 11:29:35;;;;;;;;;;;28.00;44.10;;;;;;1580699;74;1901;-71
2022/08/05 11:31:37;;;;;;;;;;;27.90;43.40;;;;;;1579619;74;840;-70
2022/08/05 11:33:47;;;;;;;;;;;27.90;43.40;;;;;;1576058;74;1646;-71
2022/08/05 11:35:52;;;;;;;;;;;27.90;43.40;;;;;;1567263;74;665;-70
2022/08/05 11:37:56;;;;;;;;;;;27.90;43.50;;;;;;1571492;74;674;-70
2022/08/05 11:39:58;;;;;;;;;;;27.90;43.50;;;;;;1579843;74;1151;-70
2022/08/05 11:42:00;;;;;;;;;;;27.80;43.50;;;;;;1576843;74;680;-71
2022/08/05 11:44:03;;;;;;;;;;;27.80;43.50;;;;;;1572021;74;718;-71
2022/08/05 11:46:04;;;;;;;;;;;27.80;43.50;;;;;;1571188;74;656;-70
2022/08/05 11:48:09;;;;;;;;;;;27.80;43.50;;;;;;1574157;74;1551;-71
2022/08/05 11:50:11;;;;;;;;;;;27.90;43.50;;;;;;1578279;73;1961;-71
2022/08/05 11:52:13;;;;;;;;;;;27.80;43.40;;;;;;1573322;74;731;-71
2022/08/05 11:54:17;;;;;;;;;;;27.90;43.20;;;;;;1571508;74;734;-70
2022/08/05 11:56:19;;;;;;;;;;;27.90;43.10;;;;;;1565547;74;1231;-70
2022/08/05 11:58:30;;;;;;;;;;;27.80;43.10;;;;;;1574860;74;699;-70
2022/08/05 12:00:32;;;;;;;;;;;27.90;43.10;;;;;;1580178;74;1148;-71
2022/08/05 12:02:34;;;;;;;;;;;27.90;43.00;;;;;;1578227;74;1572;-71
2022/08/05 12:04:43;;;;;;;;;;;27.90;42.90;;;;;;1578983;74;660;-70
2022/08/05 12:06:45;;;;;;;;;;;27.90;42.80;;;;;;1576534;74;722;-69
2022/08/05 12:08:47;;;;;;;;;;;28.00;43.50;;;;;;1575232;74;727;-70
2022/08/05 12:10:49;;;;;;;;;;;28.00;43.50;;;;;;1572988;74;1122;-70
2022/08/05 12:12:51;;;;;;;;;;;28.00;42.80;;;;;;1576608;74;761;-71
2022/08/05 12:14:53;;;;;;;;;;;27.90;42.80;;;;;;1571524;74;702;-71
2022/08/05 12:16:55;;;;;;;;;;;27.90;42.60;;;;;;1585035;74;1720;-70
2022/08/05 12:19:00;;;;;;;;;;;28.00;43.40;;;;;;1576096;74;670;-71
2022/08/05 12:21:10;;;;;;;;;;;28.00;43.20;;;;;;1574173;74;718;-71